sensor_id;sensor_type;location;lat;lon;timestamp;P1;durP1;ratioP1;P2;durP2;ratioP2
14396;SDS011;50653;47.810;13.022;2022-12-18T00:00:42;48.77;;;26.70;;
14396;SDS011;50653;47.810;13.022;2022-12-18T00:03:09;56.83;;;28.50;;
14396;SDS011;50653;47.810;13.022;2022-12-18T00:05:35;54.23;;;28.33;;
14396;SDS011;50653;47.810;13.022;2022-12-18T00:08:01;55.87;;;32.50;;
14396;SDS011;50653;47.810;13.022;2022-12-18T00:10:27;55.73;;;30.70;;
14396;SDS011;50653;47.810;13.022;2022-12-18T00:12:53;59.50;;;32.47;;
14396;SDS011;50653;47.810;13.022;2022-12-18T00:15:19;46.23;;;28.90;;
14396;SDS011;50653;47.810;13.022;2022-12-18T00:17:45;55.97;;;33.60;;
14396;SDS011;50653;47.810;13.022;2022-12-18T00:20:11;54.37;;;31.53;;
14396;SDS011;50653;47.810;13.022;2022-12-18T00:22:36;51.07;;;29.90;;
14396;SDS011;50653;47.810;13.022;2022-12-18T00:25:02;49.73;;;31.37;;
14396;SDS011;50653;47.810;13.022;2022-12-18T00:27:28;60.20;;;32.13;;
14396;SDS011;50653;47.810;13.022;2022-12-18T00:29:53;53.87;;;31.97;;
14396;SDS011;50653;47.810;13.022;2022-12-18T00:32:19;57.63;;;31.97;;
14396;SDS011;50653;47.810;13.022;2022-12-18T00:34:45;52.73;;;32.30;;
14396;SDS011;50653;47.810;13.022;2022-12-18T00:37:10;58.17;;;33.20;;
14396;SDS011;50653;47.810;13.022;2022-12-18T00:39:36;58.53;;;34.60;;
14396;SDS011;50653;47.810;13.022;2022-12-18T00:42:01;63.53;;;34.50;;
14396;SDS011;50653;47.810;13.022;2022-12-18T00:44:46;59.73;;;35.17;;
14396;SDS011;50653;47.810;13.022;2022-12-18T00:47:12;62.97;;;36.37;;
14396;SDS011;50653;47.810;13.022;2022-12-18T00:49:38;62.43;;;34.53;;
14396;SDS011;50653;47.810;13.022;2022-12-18T00:52:03;57.03;;;35.63;;
14396;SDS011;50653;47.810;13.022;2022-12-18T00:54:29;56.30;;;32.93;;
14396;SDS011;50653;47.810;13.022;2022-12-18T00:56:55;61.23;;;35.27;;
14396;SDS011;50653;47.810;13.022;2022-12-18T00:59:21;54.50;;;32.60;;
14396;SDS011;50653;47.810;13.022;2022-12-18T01:01:46;61.00;;;32.93;;
14396;SDS011;50653;47.810;13.022;2022-12-18T01:04:12;54.00;;;31.33;;
14396;SDS011;50653;47.810;13.022;2022-12-18T01:06:38;63.53;;;34.60;;
14396;SDS011;50653;47.810;13.022;2022-12-18T01:09:04;55.60;;;34.83;;
14396;SDS011;50653;47.810;13.022;2022-12-18T01:11:30;50.40;;;32.33;;
14396;SDS011;50653;47.810;13.022;2022-12-18T01:13:56;57.43;;;33.70;;
14396;SDS011;50653;47.810;13.022;2022-12-18T01:16:22;55.00;;;32.03;;
14396;SDS011;50653;47.810;13.022;2022-12-18T01:18:49;57.13;;;35.30;;
14396;SDS011;50653;47.810;13.022;2022-12-18T01:21:18;59.37;;;31.77;;
14396;SDS011;50653;47.810;13.022;2022-12-18T01:23:43;58.30;;;34.50;;
14396;SDS011;50653;47.810;13.022;2022-12-18T01:26:13;53.93;;;33.40;;
14396;SDS011;50653;47.810;13.022;2022-12-18T01:28:41;63.57;;;32.83;;
14396;SDS011;50653;47.810;13.022;2022-12-18T01:33:38;55.00;;;32.40;;
14396;SDS011;50653;47.810;13.022;2022-12-18T01:36:05;70.07;;;34.83;;
14396;SDS011;50653;47.810;13.022;2022-12-18T01:38:30;70.50;;;38.13;;
14396;SDS011;50653;47.810;13.022;2022-12-18T01:40:58;70.63;;;35.93;;
14396;SDS011;50653;47.810;13.022;2022-12-18T01:46:08;72.60;;;38.83;;
14396;SDS011;50653;47.810;13.022;2022-12-18T01:48:34;69.77;;;38.07;;
14396;SDS011;50653;47.810;13.022;2022-12-18T01:51:00;87.93;;;40.60;;
14396;SDS011;50653;47.810;13.022;2022-12-18T01:53:26;79.67;;;38.63;;
14396;SDS011;50653;47.810;13.022;2022-12-18T01:55:53;85.70;;;42.23;;
14396;SDS011;50653;47.810;13.022;2022-12-18T01:58:23;130.10;;;40.57;;
14396;SDS011;50653;47.810;13.022;2022-12-18T02:00:55;77.27;;;37.03;;
14396;SDS011;50653;47.810;13.022;2022-12-18T02:03:21;117.10;;;37.37;;
14396;SDS011;50653;47.810;13.022;2022-12-18T02:05:47;97.80;;;37.13;;
14396;SDS011;50653;47.810;13.022;2022-12-18T02:08:22;125.77;;;40.20;;
14396;SDS011;50653;47.810;13.022;2022-12-18T02:16:57;97.53;;;40.53;;
14396;SDS011;50653;47.810;13.022;2022-12-18T02:22:29;81.37;;;41.60;;
14396;SDS011;50653;47.810;13.022;2022-12-18T02:25:20;93.33;;;40.50;;
14396;SDS011;50653;47.810;13.022;2022-12-18T02:27:59;94.60;;;41.33;;
14396;SDS011;50653;47.810;13.022;2022-12-18T02:30:26;75.17;;;39.03;;
14396;SDS011;50653;47.810;13.022;2022-12-18T02:32:56;113.77;;;40.30;;
14396;SDS011;50653;47.810;13.022;2022-12-18T02:35:24;87.97;;;37.87;;
14396;SDS011;50653;47.810;13.022;2022-12-18T02:37:56;148.60;;;41.47;;
14396;SDS011;50653;47.810;13.022;2022-12-18T02:40:26;99.90;;;41.83;;
14396;SDS011;50653;47.810;13.022;2022-12-18T02:42:53;81.30;;;38.53;;
14396;SDS011;50653;47.810;13.022;2022-12-18T02:45:19;72.47;;;34.97;;
14396;SDS011;50653;47.810;13.022;2022-12-18T02:47:46;93.07;;;40.43;;
14396;SDS011;50653;47.810;13.022;2022-12-18T02:50:18;109.80;;;42.27;;
14396;SDS011;50653;47.810;13.022;2022-12-18T02:55:44;71.23;;;37.73;;
14396;SDS011;50653;47.810;13.022;2022-12-18T03:01:19;76.17;;;36.40;;
14396;SDS011;50653;47.810;13.022;2022-12-18T03:03:58;82.60;;;37.67;;
14396;SDS011;50653;47.810;13.022;2022-12-18T03:06:29;70.23;;;35.77;;
14396;SDS011;50653;47.810;13.022;2022-12-18T03:09:02;70.50;;;35.70;;
14396;SDS011;50653;47.810;13.022;2022-12-18T03:11:35;78.47;;;36.77;;
14396;SDS011;50653;47.810;13.022;2022-12-18T03:14:23;70.23;;;37.00;;
14396;SDS011;50653;47.810;13.022;2022-12-18T03:16:51;85.97;;;35.63;;
14396;SDS011;50653;47.810;13.022;2022-12-18T03:19:21;66.60;;;35.30;;
14396;SDS011;50653;47.810;13.022;2022-12-18T03:21:51;75.13;;;35.70;;
14396;SDS011;50653;47.810;13.022;2022-12-18T03:24:22;72.63;;;37.40;;
14396;SDS011;50653;47.810;13.022;2022-12-18T03:26:54;78.10;;;37.27;;
14396;SDS011;50653;47.810;13.022;2022-12-18T03:32:16;71.70;;;37.33;;
14396;SDS011;50653;47.810;13.022;2022-12-18T03:34:51;71.47;;;37.37;;
14396;SDS011;50653;47.810;13.022;2022-12-18T03:37:22;62.03;;;34.63;;
14396;SDS011;50653;47.810;13.022;2022-12-18T03:39:47;59.73;;;35.90;;
14396;SDS011;50653;47.810;13.022;2022-12-18T03:42:17;60.03;;;34.20;;
14396;SDS011;50653;47.810;13.022;2022-12-18T03:45:18;74.73;;;37.60;;
14396;SDS011;50653;47.810;13.022;2022-12-18T03:51:06;75.80;;;38.23;;
14396;SDS011;50653;47.810;13.022;2022-12-18T03:56:34;64.50;;;35.83;;
14396;SDS011;50653;47.810;13.022;2022-12-18T03:59:11;65.47;;;35.30;;
14396;SDS011;50653;47.810;13.022;2022-12-18T04:01:42;110.93;;;36.83;;
14396;SDS011;50653;47.810;13.022;2022-12-18T04:04:13;102.87;;;35.90;;
14396;SDS011;50653;47.810;13.022;2022-12-18T04:06:42;116.20;;;35.57;;
14396;SDS011;50653;47.810;13.022;2022-12-18T04:09:11;69.60;;;35.07;;
14396;SDS011;50653;47.810;13.022;2022-12-18T04:11:42;74.57;;;33.77;;
14396;SDS011;50653;47.810;13.022;2022-12-18T04:14:13;72.17;;;30.73;;
14396;SDS011;50653;47.810;13.022;2022-12-18T04:16:39;82.70;;;31.47;;
14396;SDS011;50653;47.810;13.022;2022-12-18T04:19:08;55.80;;;30.27;;
14396;SDS011;50653;47.810;13.022;2022-12-18T04:21:38;59.97;;;30.77;;
14396;SDS011;50653;47.810;13.022;2022-12-18T04:24:04;50.10;;;31.80;;
14396;SDS011;50653;47.810;13.022;2022-12-18T04:26:31;61.67;;;28.33;;
14396;SDS011;50653;47.810;13.022;2022-12-18T04:29:16;54.10;;;30.10;;
14396;SDS011;50653;47.810;13.022;2022-12-18T04:31:41;44.10;;;30.03;;
14396;SDS011;50653;47.810;13.022;2022-12-18T04:34:08;65.50;;;30.70;;
14396;SDS011;50653;47.810;13.022;2022-12-18T04:36:39;125.40;;;33.53;;
14396;SDS011;50653;47.810;13.022;2022-12-18T04:39:06;133.87;;;32.63;;
14396;SDS011;50653;47.810;13.022;2022-12-18T04:41:32;58.13;;;29.10;;
14396;SDS011;50653;47.810;13.022;2022-12-18T04:43:58;68.50;;;32.13;;
14396;SDS011;50653;47.810;13.022;2022-12-18T04:46:23;44.77;;;29.20;;
14396;SDS011;50653;47.810;13.022;2022-12-18T04:48:49;51.57;;;30.27;;
14396;SDS011;50653;47.810;13.022;2022-12-18T04:51:15;46.87;;;29.33;;
14396;SDS011;50653;47.810;13.022;2022-12-18T04:53:40;59.23;;;31.83;;
14396;SDS011;50653;47.810;13.022;2022-12-18T04:56:07;47.87;;;29.20;;
14396;SDS011;50653;47.810;13.022;2022-12-18T04:58:38;49.50;;;29.43;;
14396;SDS011;50653;47.810;13.022;2022-12-18T05:01:05;45.03;;;27.40;;
14396;SDS011;50653;47.810;13.022;2022-12-18T05:03:32;40.13;;;26.97;;
14396;SDS011;50653;47.810;13.022;2022-12-18T05:05:59;42.97;;;27.47;;
14396;SDS011;50653;47.810;13.022;2022-12-18T05:08:25;41.80;;;27.43;;
14396;SDS011;50653;47.810;13.022;2022-12-18T05:13:33;44.40;;;28.50;;
14396;SDS011;50653;47.810;13.022;2022-12-18T05:16:00;36.50;;;24.87;;
14396;SDS011;50653;47.810;13.022;2022-12-18T05:18:26;47.73;;;26.87;;
14396;SDS011;50653;47.810;13.022;2022-12-18T05:20:52;41.17;;;25.03;;
14396;SDS011;50653;47.810;13.022;2022-12-18T05:23:19;34.60;;;22.93;;
14396;SDS011;50653;47.810;13.022;2022-12-18T05:25:52;35.73;;;25.53;;
14396;SDS011;50653;47.810;13.022;2022-12-18T05:28:29;37.13;;;23.33;;
14396;SDS011;50653;47.810;13.022;2022-12-18T05:30:57;46.53;;;26.43;;
14396;SDS011;50653;47.810;13.022;2022-12-18T05:33:27;39.27;;;25.43;;
14396;SDS011;50653;47.810;13.022;2022-12-18T05:35:58;40.57;;;26.63;;
14396;SDS011;50653;47.810;13.022;2022-12-18T05:38:27;38.20;;;25.23;;
14396;SDS011;50653;47.810;13.022;2022-12-18T05:40:54;36.70;;;24.53;;
14396;SDS011;50653;47.810;13.022;2022-12-18T05:43:20;39.67;;;23.10;;
14396;SDS011;50653;47.810;13.022;2022-12-18T05:45:46;71.33;;;27.77;;
14396;SDS011;50653;47.810;13.022;2022-12-18T05:48:12;53.53;;;26.27;;
14396;SDS011;50653;47.810;13.022;2022-12-18T05:50:39;69.13;;;29.40;;
14396;SDS011;50653;47.810;13.022;2022-12-18T05:53:07;62.87;;;30.70;;
14396;SDS011;50653;47.810;13.022;2022-12-18T05:55:36;50.53;;;28.90;;
14396;SDS011;50653;47.810;13.022;2022-12-18T05:58:04;71.47;;;32.53;;
14396;SDS011;50653;47.810;13.022;2022-12-18T06:00:31;50.10;;;28.47;;
14396;SDS011;50653;47.810;13.022;2022-12-18T06:02:58;57.50;;;32.10;;
14396;SDS011;50653;47.810;13.022;2022-12-18T06:05:24;63.53;;;33.30;;
14396;SDS011;50653;47.810;13.022;2022-12-18T06:07:50;58.30;;;30.47;;
14396;SDS011;50653;47.810;13.022;2022-12-18T06:10:16;84.93;;;34.90;;
14396;SDS011;50653;47.810;13.022;2022-12-18T06:12:42;65.23;;;35.40;;
14396;SDS011;50653;47.810;13.022;2022-12-18T06:15:07;124.67;;;40.90;;
14396;SDS011;50653;47.810;13.022;2022-12-18T06:17:33;92.73;;;36.63;;
14396;SDS011;50653;47.810;13.022;2022-12-18T06:19:59;157.83;;;44.20;;
14396;SDS011;50653;47.810;13.022;2022-12-18T06:22:26;116.03;;;40.63;;
14396;SDS011;50653;47.810;13.022;2022-12-18T06:24:52;163.87;;;44.60;;
14396;SDS011;50653;47.810;13.022;2022-12-18T06:27:18;154.77;;;45.50;;
14396;SDS011;50653;47.810;13.022;2022-12-18T06:29:43;272.03;;;49.10;;
14396;SDS011;50653;47.810;13.022;2022-12-18T06:32:09;107.67;;;38.67;;
14396;SDS011;50653;47.810;13.022;2022-12-18T06:34:36;95.77;;;35.67;;
14396;SDS011;50653;47.810;13.022;2022-12-18T06:37:02;85.93;;;39.07;;
14396;SDS011;50653;47.810;13.022;2022-12-18T06:39:28;78.77;;;35.60;;
14396;SDS011;50653;47.810;13.022;2022-12-18T06:41:54;84.10;;;36.00;;
14396;SDS011;50653;47.810;13.022;2022-12-18T06:44:21;80.47;;;34.50;;
14396;SDS011;50653;47.810;13.022;2022-12-18T06:46:46;268.63;;;45.50;;
14396;SDS011;50653;47.810;13.022;2022-12-18T06:49:12;231.73;;;44.67;;
14396;SDS011;50653;47.810;13.022;2022-12-18T06:51:38;115.07;;;40.40;;
14396;SDS011;50653;47.810;13.022;2022-12-18T06:54:04;156.10;;;38.17;;
14396;SDS011;50653;47.810;13.022;2022-12-18T06:56:29;88.70;;;35.47;;
14396;SDS011;50653;47.810;13.022;2022-12-18T06:58:55;64.80;;;33.90;;
14396;SDS011;50653;47.810;13.022;2022-12-18T07:01:21;110.17;;;35.77;;
14396;SDS011;50653;47.810;13.022;2022-12-18T07:03:47;108.37;;;35.17;;
14396;SDS011;50653;47.810;13.022;2022-12-18T07:06:18;71.90;;;36.07;;
14396;SDS011;50653;47.810;13.022;2022-12-18T07:08:45;76.33;;;33.63;;
14396;SDS011;50653;47.810;13.022;2022-12-18T07:11:11;145.43;;;40.73;;
14396;SDS011;50653;47.810;13.022;2022-12-18T07:13:37;116.63;;;38.07;;
14396;SDS011;50653;47.810;13.022;2022-12-18T07:16:21;71.90;;;34.10;;
14396;SDS011;50653;47.810;13.022;2022-12-18T07:18:47;78.53;;;36.40;;
14396;SDS011;50653;47.810;13.022;2022-12-18T07:21:15;68.70;;;35.17;;
14396;SDS011;50653;47.810;13.022;2022-12-18T07:23:42;78.97;;;38.60;;
14396;SDS011;50653;47.810;13.022;2022-12-18T07:26:09;69.23;;;37.87;;
14396;SDS011;50653;47.810;13.022;2022-12-18T07:28:37;81.47;;;40.10;;
14396;SDS011;50653;47.810;13.022;2022-12-18T07:31:04;82.20;;;39.50;;
14396;SDS011;50653;47.810;13.022;2022-12-18T07:33:37;92.00;;;45.73;;
14396;SDS011;50653;47.810;13.022;2022-12-18T07:36:04;83.57;;;42.90;;
14396;SDS011;50653;47.810;13.022;2022-12-18T07:38:32;86.13;;;40.13;;
14396;SDS011;50653;47.810;13.022;2022-12-18T07:41:02;78.40;;;39.03;;
14396;SDS011;50653;47.810;13.022;2022-12-18T07:43:35;73.33;;;36.00;;
14396;SDS011;50653;47.810;13.022;2022-12-18T07:46:01;67.30;;;36.13;;
14396;SDS011;50653;47.810;13.022;2022-12-18T07:48:28;63.37;;;34.57;;
14396;SDS011;50653;47.810;13.022;2022-12-18T07:50:57;63.10;;;36.57;;
14396;SDS011;50653;47.810;13.022;2022-12-18T07:53:23;62.90;;;36.60;;
14396;SDS011;50653;47.810;13.022;2022-12-18T07:55:54;61.20;;;33.47;;
14396;SDS011;50653;47.810;13.022;2022-12-18T07:58:22;62.33;;;34.50;;
14396;SDS011;50653;47.810;13.022;2022-12-18T08:00:49;62.30;;;34.87;;
14396;SDS011;50653;47.810;13.022;2022-12-18T08:03:14;61.20;;;35.43;;
14396;SDS011;50653;47.810;13.022;2022-12-18T08:05:40;63.33;;;35.27;;
14396;SDS011;50653;47.810;13.022;2022-12-18T08:08:06;62.30;;;34.80;;
14396;SDS011;50653;47.810;13.022;2022-12-18T08:10:31;58.40;;;34.87;;
14396;SDS011;50653;47.810;13.022;2022-12-18T08:12:57;63.57;;;38.60;;
14396;SDS011;50653;47.810;13.022;2022-12-18T08:15:22;59.07;;;33.53;;
14396;SDS011;50653;47.810;13.022;2022-12-18T08:17:48;52.37;;;35.10;;
14396;SDS011;50653;47.810;13.022;2022-12-18T08:20:14;60.87;;;35.57;;
14396;SDS011;50653;47.810;13.022;2022-12-18T08:22:40;63.93;;;37.07;;
14396;SDS011;50653;47.810;13.022;2022-12-18T08:25:07;63.20;;;39.17;;
14396;SDS011;50653;47.810;13.022;2022-12-18T08:27:33;63.53;;;40.90;;
14396;SDS011;50653;47.810;13.022;2022-12-18T08:29:59;78.60;;;44.23;;
14396;SDS011;50653;47.810;13.022;2022-12-18T08:32:25;63.00;;;36.33;;
14396;SDS011;50653;47.810;13.022;2022-12-18T08:34:51;62.43;;;38.33;;
14396;SDS011;50653;47.810;13.022;2022-12-18T08:37:17;57.77;;;36.17;;
14396;SDS011;50653;47.810;13.022;2022-12-18T08:39:42;51.93;;;34.70;;
14396;SDS011;50653;47.810;13.022;2022-12-18T08:42:08;54.83;;;34.70;;
14396;SDS011;50653;47.810;13.022;2022-12-18T08:44:52;58.70;;;33.30;;
14396;SDS011;50653;47.810;13.022;2022-12-18T08:47:18;59.20;;;35.53;;
14396;SDS011;50653;47.810;13.022;2022-12-18T08:49:44;58.40;;;34.20;;
14396;SDS011;50653;47.810;13.022;2022-12-18T08:52:09;55.17;;;35.63;;
14396;SDS011;50653;47.810;13.022;2022-12-18T08:54:36;68.47;;;40.57;;
14396;SDS011;50653;47.810;13.022;2022-12-18T08:57:01;49.80;;;34.70;;
14396;SDS011;50653;47.810;13.022;2022-12-18T08:59:27;66.00;;;36.70;;
14396;SDS011;50653;47.810;13.022;2022-12-18T09:01:53;58.67;;;35.67;;
14396;SDS011;50653;47.810;13.022;2022-12-18T09:04:20;55.47;;;34.40;;
14396;SDS011;50653;47.810;13.022;2022-12-18T09:06:45;58.03;;;35.37;;
14396;SDS011;50653;47.810;13.022;2022-12-18T09:09:11;58.73;;;38.00;;
14396;SDS011;50653;47.810;13.022;2022-12-18T09:11:37;61.60;;;36.50;;
14396;SDS011;50653;47.810;13.022;2022-12-18T09:14:03;57.30;;;36.70;;
14396;SDS011;50653;47.810;13.022;2022-12-18T09:16:28;59.00;;;35.63;;
14396;SDS011;50653;47.810;13.022;2022-12-18T09:18:55;56.30;;;36.13;;
14396;SDS011;50653;47.810;13.022;2022-12-18T09:21:24;61.57;;;36.07;;
14396;SDS011;50653;47.810;13.022;2022-12-18T09:23:51;55.23;;;35.80;;
14396;SDS011;50653;47.810;13.022;2022-12-18T09:26:18;67.13;;;41.03;;
14396;SDS011;50653;47.810;13.022;2022-12-18T09:28:44;56.43;;;37.77;;
14396;SDS011;50653;47.810;13.022;2022-12-18T09:31:11;64.17;;;39.80;;
14396;SDS011;50653;47.810;13.022;2022-12-18T09:33:40;70.10;;;40.17;;
14396;SDS011;50653;47.810;13.022;2022-12-18T09:36:07;74.27;;;41.43;;
14396;SDS011;50653;47.810;13.022;2022-12-18T09:38:34;67.87;;;38.60;;
14396;SDS011;50653;47.810;13.022;2022-12-18T09:44:18;58.97;;;38.50;;
14396;SDS011;50653;47.810;13.022;2022-12-18T09:47:07;64.67;;;39.63;;
14396;SDS011;50653;47.810;13.022;2022-12-18T09:49:36;62.40;;;39.77;;
14396;SDS011;50653;47.810;13.022;2022-12-18T09:55:11;58.47;;;36.60;;
14396;SDS011;50653;47.810;13.022;2022-12-18T09:57:58;62.97;;;38.80;;
14396;SDS011;50653;47.810;13.022;2022-12-18T10:00:30;68.77;;;42.30;;
14396;SDS011;50653;47.810;13.022;2022-12-18T10:02:59;81.07;;;43.50;;
14396;SDS011;50653;47.810;13.022;2022-12-18T10:05:50;81.03;;;44.37;;
14396;SDS011;50653;47.810;13.022;2022-12-18T10:08:37;69.30;;;39.60;;
14396;SDS011;50653;47.810;13.022;2022-12-18T10:11:22;72.03;;;44.00;;
14396;SDS011;50653;47.810;13.022;2022-12-18T10:14:27;71.90;;;41.70;;
14396;SDS011;50653;47.810;13.022;2022-12-18T10:17:04;71.17;;;41.47;;
14396;SDS011;50653;47.810;13.022;2022-12-18T10:19:47;72.90;;;41.50;;
14396;SDS011;50653;47.810;13.022;2022-12-18T10:22:34;75.63;;;42.47;;
14396;SDS011;50653;47.810;13.022;2022-12-18T10:25:16;71.37;;;38.43;;
14396;SDS011;50653;47.810;13.022;2022-12-18T10:27:47;67.57;;;38.17;;
14396;SDS011;50653;47.810;13.022;2022-12-18T10:30:17;70.43;;;39.67;;
14396;SDS011;50653;47.810;13.022;2022-12-18T10:32:44;63.23;;;38.57;;
14396;SDS011;50653;47.810;13.022;2022-12-18T10:40:28;64.57;;;37.03;;
14396;SDS011;50653;47.810;13.022;2022-12-18T10:43:04;74.60;;;39.93;;
14396;SDS011;50653;47.810;13.022;2022-12-18T10:45:37;76.47;;;41.90;;
14396;SDS011;50653;47.810;13.022;2022-12-18T10:48:04;78.63;;;43.17;;
14396;SDS011;50653;47.810;13.022;2022-12-18T10:50:42;81.40;;;43.97;;
14396;SDS011;50653;47.810;13.022;2022-12-18T10:53:18;80.77;;;41.33;;
14396;SDS011;50653;47.810;13.022;2022-12-18T10:55:46;77.93;;;38.00;;
14396;SDS011;50653;47.810;13.022;2022-12-18T10:58:19;69.43;;;37.80;;
14396;SDS011;50653;47.810;13.022;2022-12-18T11:03:36;72.80;;;40.90;;
14396;SDS011;50653;47.810;13.022;2022-12-18T11:06:08;84.13;;;43.70;;
14396;SDS011;50653;47.810;13.022;2022-12-18T11:08:36;82.53;;;44.40;;
14396;SDS011;50653;47.810;13.022;2022-12-18T11:11:02;83.27;;;41.17;;
14396;SDS011;50653;47.810;13.022;2022-12-18T11:13:29;76.43;;;42.57;;
14396;SDS011;50653;47.810;13.022;2022-12-18T11:15:56;74.27;;;41.03;;
14396;SDS011;50653;47.810;13.022;2022-12-18T11:20:57;72.57;;;37.50;;
14396;SDS011;50653;47.810;13.022;2022-12-18T11:23:26;72.47;;;40.23;;
14396;SDS011;50653;47.810;13.022;2022-12-18T11:25:53;78.40;;;39.30;;
14396;SDS011;50653;47.810;13.022;2022-12-18T11:28:25;70.77;;;41.90;;
14396;SDS011;50653;47.810;13.022;2022-12-18T11:33:41;71.70;;;41.27;;
14396;SDS011;50653;47.810;13.022;2022-12-18T11:36:11;68.10;;;38.37;;
14396;SDS011;50653;47.810;13.022;2022-12-18T11:38:39;74.20;;;36.87;;
14396;SDS011;50653;47.810;13.022;2022-12-18T11:44:21;68.40;;;36.80;;
14396;SDS011;50653;47.810;13.022;2022-12-18T11:46:55;74.73;;;39.30;;
14396;SDS011;50653;47.810;13.022;2022-12-18T11:49:26;74.73;;;39.73;;
14396;SDS011;50653;47.810;13.022;2022-12-18T11:54:29;66.90;;;36.97;;
14396;SDS011;50653;47.810;13.022;2022-12-18T11:56:56;64.17;;;37.50;;
14396;SDS011;50653;47.810;13.022;2022-12-18T11:59:50;77.37;;;39.03;;
14396;SDS011;50653;47.810;13.022;2022-12-18T12:02:51;69.50;;;38.23;;
14396;SDS011;50653;47.810;13.022;2022-12-18T12:19:26;66.17;;;35.97;;
14396;SDS011;50653;47.810;13.022;2022-12-18T12:24:59;62.90;;;34.50;;
14396;SDS011;50653;47.810;13.022;2022-12-18T12:27:39;60.80;;;32.73;;
14396;SDS011;50653;47.810;13.022;2022-12-18T12:32:49;58.63;;;32.80;;
14396;SDS011;50653;47.810;13.022;2022-12-18T12:35:36;62.00;;;34.53;;
14396;SDS011;50653;47.810;13.022;2022-12-18T12:38:22;56.90;;;33.87;;
14396;SDS011;50653;47.810;13.022;2022-12-18T12:40:59;46.83;;;29.17;;
14396;SDS011;50653;47.810;13.022;2022-12-18T12:43:41;55.97;;;30.87;;
14396;SDS011;50653;47.810;13.022;2022-12-18T12:46:12;60.97;;;32.53;;
14396;SDS011;50653;47.810;13.022;2022-12-18T12:48:46;55.17;;;30.67;;
14396;SDS011;50653;47.810;13.022;2022-12-18T12:51:21;56.80;;;31.20;;
14396;SDS011;50653;47.810;13.022;2022-12-18T12:53:50;59.23;;;32.80;;
14396;SDS011;50653;47.810;13.022;2022-12-18T12:56:18;52.47;;;31.00;;
14396;SDS011;50653;47.810;13.022;2022-12-18T13:01:42;64.20;;;35.03;;
14396;SDS011;50653;47.810;13.022;2022-12-18T13:07:19;49.30;;;27.57;;
14396;SDS011;50653;47.810;13.022;2022-12-18T13:12:50;65.73;;;34.67;;
14396;SDS011;50653;47.810;13.022;2022-12-18T13:15:40;63.50;;;34.77;;
14396;SDS011;50653;47.810;13.022;2022-12-18T13:18:28;53.27;;;31.77;;
14396;SDS011;50653;47.810;13.022;2022-12-18T13:23:25;54.13;;;30.87;;
14396;SDS011;50653;47.810;13.022;2022-12-18T13:25:54;51.60;;;28.70;;
14396;SDS011;50653;47.810;13.022;2022-12-18T13:30:59;54.77;;;28.37;;
14396;SDS011;50653;47.810;13.022;2022-12-18T13:36:00;56.80;;;30.70;;
14396;SDS011;50653;47.810;13.022;2022-12-18T13:38:36;57.67;;;32.37;;
14396;SDS011;50653;47.810;13.022;2022-12-18T13:43:44;64.60;;;30.03;;
14396;SDS011;50653;47.810;13.022;2022-12-18T13:46:24;69.00;;;34.00;;
14396;SDS011;50653;47.810;13.022;2022-12-18T13:51:23;68.00;;;30.80;;
14396;SDS011;50653;47.810;13.022;2022-12-18T13:54:00;57.27;;;31.10;;
14396;SDS011;50653;47.810;13.022;2022-12-18T13:56:47;60.57;;;31.57;;
14396;SDS011;50653;47.810;13.022;2022-12-18T13:59:26;51.50;;;30.30;;
14396;SDS011;50653;47.810;13.022;2022-12-18T14:02:12;52.20;;;29.50;;
14396;SDS011;50653;47.810;13.022;2022-12-18T14:04:39;58.00;;;31.50;;
14396;SDS011;50653;47.810;13.022;2022-12-18T14:07:06;50.47;;;28.53;;
14396;SDS011;50653;47.810;13.022;2022-12-18T14:09:36;49.23;;;28.57;;
14396;SDS011;50653;47.810;13.022;2022-12-18T14:12:06;63.23;;;31.97;;
14396;SDS011;50653;47.810;13.022;2022-12-18T14:14:58;48.57;;;28.50;;
14396;SDS011;50653;47.810;13.022;2022-12-18T14:17:24;56.57;;;29.17;;
14396;SDS011;50653;47.810;13.022;2022-12-18T14:19:49;50.93;;;27.30;;
14396;SDS011;50653;47.810;13.022;2022-12-18T14:22:17;52.97;;;28.40;;
14396;SDS011;50653;47.810;13.022;2022-12-18T14:24:44;55.73;;;29.03;;
14396;SDS011;50653;47.810;13.022;2022-12-18T14:27:21;58.93;;;29.63;;
14396;SDS011;50653;47.810;13.022;2022-12-18T14:29:49;59.93;;;29.10;;
14396;SDS011;50653;47.810;13.022;2022-12-18T14:32:19;53.53;;;27.87;;
14396;SDS011;50653;47.810;13.022;2022-12-18T14:34:47;60.97;;;30.80;;
14396;SDS011;50653;47.810;13.022;2022-12-18T14:37:23;56.50;;;30.50;;
14396;SDS011;50653;47.810;13.022;2022-12-18T14:39:58;62.77;;;33.10;;
14396;SDS011;50653;47.810;13.022;2022-12-18T14:42:27;54.10;;;30.90;;
14396;SDS011;50653;47.810;13.022;2022-12-18T14:47:57;59.73;;;30.90;;
14396;SDS011;50653;47.810;13.022;2022-12-18T14:50:24;60.63;;;32.67;;
14396;SDS011;50653;47.810;13.022;2022-12-18T14:52:50;63.60;;;33.33;;
14396;SDS011;50653;47.810;13.022;2022-12-18T14:55:16;70.77;;;37.50;;
14396;SDS011;50653;47.810;13.022;2022-12-18T14:57:43;55.83;;;33.10;;
14396;SDS011;50653;47.810;13.022;2022-12-18T15:00:20;63.20;;;35.50;;
14396;SDS011;50653;47.810;13.022;2022-12-18T15:02:48;62.33;;;32.20;;
14396;SDS011;50653;47.810;13.022;2022-12-18T15:05:19;59.43;;;29.93;;
14396;SDS011;50653;47.810;13.022;2022-12-18T15:07:50;52.83;;;30.97;;
14396;SDS011;50653;47.810;13.022;2022-12-18T15:10:21;56.67;;;28.10;;
14396;SDS011;50653;47.810;13.022;2022-12-18T15:18:18;53.10;;;31.43;;
14396;SDS011;50653;47.810;13.022;2022-12-18T15:23:21;56.87;;;27.47;;
14396;SDS011;50653;47.810;13.022;2022-12-18T15:25:58;49.77;;;28.47;;
14396;SDS011;50653;47.810;13.022;2022-12-18T15:28:35;46.27;;;26.03;;
14396;SDS011;50653;47.810;13.022;2022-12-18T15:33:38;54.60;;;30.47;;
14396;SDS011;50653;47.810;13.022;2022-12-18T15:36:14;52.70;;;29.80;;
14396;SDS011;50653;47.810;13.022;2022-12-18T15:38:41;108.70;;;53.10;;
14396;SDS011;50653;47.810;13.022;2022-12-18T15:41:13;84.20;;;42.20;;
14396;SDS011;50653;47.810;13.022;2022-12-18T15:43:40;68.67;;;37.87;;
14396;SDS011;50653;47.810;13.022;2022-12-18T15:46:11;60.00;;;35.10;;
14396;SDS011;50653;47.810;13.022;2022-12-18T15:48:41;56.80;;;29.87;;
14396;SDS011;50653;47.810;13.022;2022-12-18T15:51:14;56.37;;;30.67;;
14396;SDS011;50653;47.810;13.022;2022-12-18T15:53:45;52.67;;;31.07;;
14396;SDS011;50653;47.810;13.022;2022-12-18T15:56:12;69.00;;;36.50;;
14396;SDS011;50653;47.810;13.022;2022-12-18T15:58:58;63.53;;;34.67;;
14396;SDS011;50653;47.810;13.022;2022-12-18T16:01:26;64.83;;;33.27;;
14396;SDS011;50653;47.810;13.022;2022-12-18T16:03:53;54.37;;;32.73;;
14396;SDS011;50653;47.810;13.022;2022-12-18T16:06:20;51.30;;;31.83;;
14396;SDS011;50653;47.810;13.022;2022-12-18T16:08:46;59.97;;;32.80;;
14396;SDS011;50653;47.810;13.022;2022-12-18T16:11:26;58.70;;;35.50;;
14396;SDS011;50653;47.810;13.022;2022-12-18T16:14:28;66.47;;;35.63;;
14396;SDS011;50653;47.810;13.022;2022-12-18T16:16:59;62.30;;;35.50;;